createdAt,value
2017-12-17T00:01:24.953Z,94.90
2017-12-17T00:03:01.794Z,95.10
2017-12-17T00:04:39.039Z,94.80
2017-12-17T00:06:24.256Z,94.80
2017-12-17T00:08:00.756Z,94.20
2017-12-17T00:09:37.646Z,94.50
2017-12-17T00:11:14.061Z,94.70
2017-12-17T00:12:51.767Z,94.60
2017-12-17T00:14:28.766Z,94.50
2017-12-17T00:16:05.916Z,94.50
2017-12-17T00:17:43.296Z,94.10
2017-12-17T00:19:19.578Z,94.90
2017-12-17T00:20:56.638Z,95.20
2017-12-17T00:22:33.224Z,95.20
2017-12-17T00:24:09.770Z,95.10
2017-12-17T00:25:47.048Z,94.60
2017-12-17T00:27:23.381Z,94.80
2017-12-17T00:28:59.867Z,94.40
2017-12-17T00:30:36.074Z,94.00
2017-12-17T00:32:16.890Z,93.30
2017-12-17T00:33:53.473Z,93.00
2017-12-17T00:35:30.208Z,93.00
2017-12-17T00:37:07.144Z,93.20
2017-12-17T00:38:44.266Z,93.20
2017-12-17T00:40:20.298Z,93.70
2017-12-17T00:41:56.808Z,94.40
2017-12-17T00:43:33.120Z,93.80
2017-12-17T00:45:09.432Z,94.40
2017-12-17T00:46:46.672Z,94.90
2017-12-17T00:48:23.538Z,95.20
2017-12-17T00:49:59.632Z,95.80
2017-12-17T00:51:36.775Z,95.10
2017-12-17T00:53:12.917Z,94.90
2017-12-17T00:54:49.357Z,95.30
2017-12-17T00:56:29.025Z,95.10
2017-12-17T01:00:59.682Z,95.80
2017-12-17T01:02:35.854Z,96.10
2017-12-17T01:04:12.169Z,96.00
2017-12-17T01:05:49.398Z,96.00
2017-12-17T01:07:26.503Z,95.20
2017-12-17T01:09:03.918Z,95.80
2017-12-17T01:10:40.046Z,95.70
2017-12-17T01:12:16.625Z,95.90
2017-12-17T01:13:53.372Z,95.90
2017-12-17T01:15:31.588Z,95.90
2017-12-17T01:17:07.938Z,96.20
2017-12-17T01:18:45.186Z,96.50
2017-12-17T01:20:21.296Z,96.50
2017-12-17T01:21:57.262Z,95.90
2017-12-17T01:23:36.243Z,96.60
2017-12-17T01:25:12.757Z,96.60
2017-12-17T01:26:49.612Z,94.60
2017-12-17T01:28:25.565Z,94.60
2017-12-17T01:30:02.644Z,94.60
2017-12-17T01:31:39.456Z,94.90
2017-12-17T01:33:16.595Z,95.50
2017-12-17T01:34:52.524Z,95.40
2017-12-17T01:36:28.541Z,95.60
2017-12-17T01:38:05.872Z,95.80
2017-12-17T01:39:41.796Z,95.80
2017-12-17T01:41:18.149Z,95.90
2017-12-17T01:42:54.606Z,95.90
2017-12-17T01:44:31.190Z,96.10
2017-12-17T01:46:07.503Z,95.80
2017-12-17T01:47:43.798Z,95.70
2017-12-17T01:49:21.020Z,96.40
2017-12-17T01:50:57.114Z,96.40
2017-12-17T01:52:33.386Z,95.80
2017-12-17T01:54:09.552Z,95.30
2017-12-17T01:55:45.837Z,94.90
2017-12-17T01:57:24.321Z,95.00
2017-12-17T01:59:01.358Z,95.60
2017-12-17T02:00:37.578Z,95.60
2017-12-17T02:02:14.318Z,95.80
2017-12-17T02:03:50.953Z,95.80
2017-12-17T02:05:28.552Z,96.00
2017-12-17T02:07:05.127Z,95.60
2017-12-17T02:08:41.523Z,95.70
2017-12-17T02:10:18.755Z,95.80
2017-12-17T02:11:55.276Z,94.90
2017-12-17T02:13:31.503Z,95.10
2017-12-17T02:15:07.937Z,95.40
2017-12-17T02:16:44.680Z,94.80
2017-12-17T02:18:20.834Z,94.10
2017-12-17T02:19:57.952Z,94.90
2017-12-17T02:21:35.339Z,95.10
2017-12-17T02:23:18.083Z,95.30
2017-12-17T02:24:54.241Z,95.00
2017-12-17T02:26:30.800Z,94.80
2017-12-17T02:28:07.814Z,94.60
2017-12-17T02:29:45.326Z,94.60
2017-12-17T02:31:23.060Z,94.70
2017-12-17T02:33:00.011Z,94.90
2017-12-17T02:34:37.270Z,95.60
2017-12-17T02:36:13.445Z,95.50
2017-12-17T02:37:49.956Z,96.40
2017-12-17T02:39:27.531Z,96.30
2017-12-17T02:41:03.946Z,96.30
2017-12-17T02:42:40.758Z,95.20
2017-12-17T02:44:16.990Z,94.10
2017-12-17T02:45:53.648Z,94.40
2017-12-17T02:47:29.768Z,94.40
2017-12-17T02:49:07.475Z,95.40
2017-12-17T02:50:44.127Z,95.40
2017-12-17T02:52:21.035Z,95.50
2017-12-17T02:53:57.254Z,95.50
2017-12-17T02:55:34.169Z,95.20
2017-12-17T02:57:11.001Z,95.00
2017-12-17T02:58:47.154Z,94.50
2017-12-17T03:00:27.289Z,95.10
2017-12-17T03:02:03.479Z,95.20
2017-12-17T03:03:40.281Z,94.60
2017-12-17T03:05:17.219Z,94.40
2017-12-17T03:06:53.358Z,94.40
2017-12-17T03:08:35.803Z,93.90
2017-12-17T03:10:13.077Z,92.50
2017-12-17T03:11:49.345Z,92.50
2017-12-17T03:13:25.564Z,92.70
2017-12-17T03:15:02.165Z,92.90
2017-12-17T03:16:38.639Z,92.30
2017-12-17T03:18:15.778Z,92.50
2017-12-17T03:19:52.007Z,92.80
2017-12-17T03:21:29.190Z,92.50
2017-12-17T03:23:05.485Z,92.10
2017-12-17T03:24:41.881Z,92.40
2017-12-17T03:26:18.288Z,92.80
2017-12-17T03:27:55.794Z,92.90
2017-12-17T03:29:31.939Z,92.90
2017-12-17T03:31:08.809Z,92.10
2017-12-17T03:32:45.921Z,91.20
2017-12-17T03:34:22.647Z,91.20
2017-12-17T03:35:59.743Z,91.60
2017-12-17T03:37:36.727Z,91.30
2017-12-17T03:39:16.328Z,91.30
2017-12-17T03:40:53.067Z,91.20
2017-12-17T03:42:29.302Z,91.00
2017-12-17T03:44:06.578Z,91.30
2017-12-17T03:45:42.871Z,91.30
2017-12-17T03:47:19.487Z,91.60
2017-12-17T03:48:55.885Z,92.00
2017-12-17T03:50:32.945Z,91.30
2017-12-17T03:52:09.106Z,91.20
2017-12-17T03:53:45.767Z,91.90
2017-12-17T03:55:26.753Z,92.70
2017-12-17T03:57:03.094Z,92.60
2017-12-17T03:58:40.097Z,91.80
2017-12-17T04:00:22.555Z,91.30
2017-12-17T04:02:02.809Z,91.90
2017-12-17T04:03:39.062Z,92.20
2017-12-17T04:05:15.993Z,93.00
2017-12-17T04:06:52.134Z,93.00
2017-12-17T04:08:28.250Z,93.60
2017-12-17T04:10:05.269Z,93.10
2017-12-17T04:11:41.476Z,93.10
2017-12-17T04:13:18.108Z,93.90
2017-12-17T04:14:54.467Z,94.50
2017-12-17T04:16:30.698Z,94.60
2017-12-17T04:18:07.480Z,94.60
2017-12-17T04:19:44.666Z,94.60
2017-12-17T04:21:20.768Z,94.30
2017-12-17T04:22:56.787Z,94.30
2017-12-17T04:24:32.930Z,93.30
2017-12-17T04:26:09.630Z,93.40
2017-12-17T04:27:45.750Z,94.70
2017-12-17T04:29:21.764Z,94.20
2017-12-17T04:30:57.863Z,95.30
2017-12-17T04:32:35.066Z,93.40
2017-12-17T04:34:11.176Z,93.40
2017-12-17T04:35:49.518Z,93.60
2017-12-17T04:37:26.218Z,94.80
2017-12-17T04:39:02.775Z,94.80
2017-12-17T04:40:39.269Z,93.60
2017-12-17T04:42:15.483Z,93.20
2017-12-17T04:43:51.460Z,94.00
2017-12-17T04:45:31.626Z,94.20
2017-12-17T04:47:08.459Z,94.50
2017-12-17T04:48:46.132Z,95.90
2017-12-17T04:50:22.174Z,95.80
2017-12-17T04:51:59.078Z,96.40
2017-12-17T04:53:35.182Z,95.60
2017-12-17T04:55:11.408Z,95.10
2017-12-17T04:56:47.584Z,95.20
2017-12-17T04:58:24.840Z,95.50
2017-12-17T05:00:00.926Z,95.50
2017-12-17T05:01:37.139Z,95.10
2017-12-17T05:03:13.197Z,94.70
2017-12-17T05:04:49.700Z,94.50
2017-12-17T05:06:26.525Z,93.90
2017-12-17T05:08:02.784Z,93.90
2017-12-17T05:09:39.215Z,94.20
2017-12-17T05:11:16.470Z,94.80
2017-12-17T05:12:52.570Z,94.70
2017-12-17T05:14:29.374Z,94.80
2017-12-17T05:16:11.995Z,94.30
2017-12-17T05:17:48.060Z,94.00
2017-12-17T05:19:24.114Z,93.90
2017-12-17T05:21:00.077Z,94.20
2017-12-17T05:22:36.591Z,94.50
2017-12-17T05:24:13.985Z,94.20
2017-12-17T05:25:50.446Z,94.20
2017-12-17T05:27:27.366Z,94.10
2017-12-17T05:29:03.527Z,94.10
2017-12-17T05:30:40.133Z,93.60
2017-12-17T05:32:16.193Z,93.50
2017-12-17T05:33:53.112Z,92.70
2017-12-17T05:37:09.170Z,92.20
2017-12-17T05:38:45.704Z,91.70
2017-12-17T05:40:22.179Z,91.20
2017-12-17T05:41:58.714Z,91.70
2017-12-17T05:43:35.274Z,92.00
2017-12-17T05:45:11.333Z,92.40
2017-12-17T05:46:47.796Z,92.70
2017-12-17T05:48:26.638Z,92.50
2017-12-17T05:50:03.064Z,92.00
2017-12-17T05:51:39.928Z,93.40
2017-12-17T05:53:17.898Z,94.00
2017-12-17T05:54:53.971Z,94.00
2017-12-17T05:56:30.793Z,94.50
2017-12-17T05:58:06.812Z,95.30
2017-12-17T05:59:43.735Z,96.10
2017-12-17T06:01:19.855Z,96.00
2017-12-17T06:02:57.078Z,95.40
2017-12-17T06:04:33.159Z,95.40
2017-12-17T06:06:13.473Z,95.90
2017-12-17T06:07:49.737Z,95.50
2017-12-17T06:09:26.411Z,95.00
2017-12-17T06:11:02.448Z,95.10
2017-12-17T06:12:38.565Z,95.30
2017-12-17T06:14:14.615Z,94.70
2017-12-17T06:15:51.213Z,94.50
2017-12-17T06:19:09.216Z,94.40
2017-12-17T06:20:45.346Z,94.70
2017-12-17T06:22:21.904Z,95.10
2017-12-17T06:23:58.069Z,94.00
2017-12-17T06:25:34.217Z,93.40
2017-12-17T06:27:11.030Z,93.30
2017-12-17T06:30:24.841Z,94.10
2017-12-17T06:32:01.676Z,95.40
2017-12-17T06:33:43.542Z,95.40
2017-12-17T06:35:20.175Z,95.80
2017-12-17T06:36:56.248Z,96.30
2017-12-17T06:38:32.269Z,95.60
2017-12-17T06:40:08.559Z,94.70
2017-12-17T06:41:46.251Z,93.90
2017-12-17T06:43:22.642Z,93.90
2017-12-17T06:44:58.695Z,93.40
2017-12-17T06:46:35.638Z,93.80
2017-12-17T06:48:18.772Z,93.80
2017-12-17T06:49:54.817Z,93.20
2017-12-17T06:51:31.203Z,93.70
2017-12-17T06:53:08.096Z,93.90
2017-12-17T06:54:46.237Z,93.60
2017-12-17T06:56:23.152Z,93.60
2017-12-17T06:57:59.227Z,93.40
2017-12-17T06:59:36.153Z,93.50
2017-12-17T07:01:13.013Z,93.50
2017-12-17T07:02:49.093Z,92.80
2017-12-17T07:04:25.219Z,93.60
2017-12-17T07:06:01.215Z,93.90
2017-12-17T07:07:37.643Z,93.60
2017-12-17T07:09:14.214Z,93.40
2017-12-17T07:10:50.682Z,93.00
2017-12-17T07:12:26.688Z,93.80
2017-12-17T07:14:03.118Z,93.30
2017-12-17T07:15:39.611Z,92.80
2017-12-17T07:17:15.860Z,92.70
2017-12-17T07:18:52.086Z,92.90
2017-12-17T07:20:28.583Z,93.40
2017-12-17T07:22:04.725Z,93.10
2017-12-17T07:23:41.242Z,93.60
2017-12-17T07:25:18.129Z,94.60
2017-12-17T07:26:54.861Z,94.60
2017-12-17T07:28:30.942Z,93.50
2017-12-17T07:30:07.914Z,93.00
2017-12-17T07:31:44.448Z,93.00
2017-12-17T07:33:21.250Z,93.30
2017-12-17T07:34:58.156Z,93.20
2017-12-17T07:36:34.228Z,93.20
2017-12-17T07:38:10.295Z,93.50
2017-12-17T07:39:46.417Z,93.10
2017-12-17T07:41:22.538Z,92.80
2017-12-17T07:42:58.651Z,93.00
2017-12-17T07:44:34.793Z,93.50
2017-12-17T07:46:11.628Z,93.60
2017-12-17T07:47:47.846Z,93.80
2017-12-17T07:49:24.093Z,94.10
2017-12-17T07:51:00.218Z,93.90
2017-12-17T07:52:36.853Z,93.80
2017-12-17T07:54:12.952Z,94.10
2017-12-17T07:55:49.083Z,94.00
2017-12-17T07:57:25.449Z,94.10
2017-12-17T07:59:01.793Z,94.10
2017-12-17T08:00:38.143Z,93.90
2017-12-17T08:02:14.283Z,94.10
2017-12-17T08:03:50.264Z,93.70
2017-12-17T08:05:26.745Z,93.60
2017-12-17T08:07:03.140Z,93.70
2017-12-17T08:08:39.282Z,94.20
2017-12-17T08:10:16.223Z,94.00
2017-12-17T08:11:52.835Z,94.00
2017-12-17T08:13:28.954Z,93.40
2017-12-17T08:15:05.032Z,93.50
2017-12-17T08:16:42.133Z,93.50
2017-12-17T08:18:18.652Z,93.50
2017-12-17T08:19:54.855Z,94.00
2017-12-17T08:21:32.256Z,93.60
2017-12-17T08:23:08.646Z,93.60
2017-12-17T08:24:46.072Z,94.90
2017-12-17T08:26:23.052Z,93.50
2017-12-17T08:27:59.861Z,93.40
2017-12-17T08:29:36.366Z,93.40
2017-12-17T08:31:20.749Z,93.10
2017-12-17T08:32:56.852Z,93.30
2017-12-17T08:34:32.992Z,93.90
2017-12-17T08:36:09.085Z,94.40
2017-12-17T08:37:45.603Z,94.30
2017-12-17T08:39:22.708Z,94.90
2017-12-17T08:40:59.440Z,94.90
2017-12-17T08:42:35.655Z,94.70
2017-12-17T08:44:12.105Z,94.40
2017-12-17T08:45:48.599Z,94.80
2017-12-17T08:47:24.859Z,94.60
2017-12-17T08:49:01.135Z,94.10
2017-12-17T08:50:37.754Z,93.70
2017-12-17T08:52:14.221Z,94.10
2017-12-17T08:53:50.311Z,94.50
2017-12-17T08:55:26.400Z,94.70
2017-12-17T08:57:03.289Z,94.30
2017-12-17T08:58:39.748Z,93.70
2017-12-17T09:00:20.331Z,94.20
2017-12-17T09:01:57.636Z,93.70
2017-12-17T09:03:34.272Z,93.70
2017-12-17T09:05:14.043Z,92.80
2017-12-17T09:06:50.094Z,93.50
2017-12-17T09:08:33.180Z,94.00
2017-12-17T09:10:10.467Z,93.80
2017-12-17T09:11:48.003Z,94.20
2017-12-17T09:13:24.145Z,94.20
2017-12-17T09:15:00.247Z,93.80
2017-12-17T09:16:36.996Z,93.30
2017-12-17T09:18:13.748Z,92.60
2017-12-17T09:19:49.934Z,92.00
2017-12-17T09:21:26.180Z,92.10
2017-12-17T09:23:02.747Z,92.30
2017-12-17T09:24:39.097Z,91.90
2017-12-17T09:26:16.130Z,92.10
2017-12-17T09:27:55.542Z,92.10
2017-12-17T09:29:32.229Z,92.50
2017-12-17T09:31:08.925Z,92.80
2017-12-17T09:32:46.568Z,93.60
2017-12-17T09:34:23.649Z,93.60
2017-12-17T09:36:00.309Z,93.60
2017-12-17T09:37:36.703Z,93.80
2017-12-17T09:39:19.574Z,94.90
2017-12-17T09:40:56.649Z,95.10
2017-12-17T09:42:33.578Z,95.10
2017-12-17T09:44:19.828Z,95.10
2017-12-17T09:45:56.080Z,95.10
2017-12-17T09:47:32.366Z,95.90
2017-12-17T09:49:09.308Z,96.20
2017-12-17T09:50:46.556Z,95.60
2017-12-17T09:52:22.969Z,94.50
2017-12-17T09:53:59.202Z,93.80
2017-12-17T09:55:36.263Z,94.20
2017-12-17T09:57:12.738Z,93.30
2017-12-17T09:58:49.300Z,92.90
2017-12-17T10:00:32.879Z,93.00
2017-12-17T10:02:09.457Z,93.30
2017-12-17T10:03:46.401Z,94.00
2017-12-17T10:05:22.587Z,94.00
2017-12-17T10:06:59.032Z,95.40
2017-12-17T10:08:35.921Z,96.20
2017-12-17T10:10:12.287Z,95.80
2017-12-17T10:11:48.408Z,95.70
2017-12-17T10:13:24.806Z,94.60
2017-12-17T10:15:01.371Z,94.20
2017-12-17T10:16:38.225Z,92.80
2017-12-17T10:18:15.003Z,92.30
2017-12-17T10:19:51.420Z,92.10
2017-12-17T10:21:27.958Z,91.10
2017-12-17T10:23:04.278Z,91.30
2017-12-17T10:24:40.647Z,90.90
2017-12-17T10:26:16.951Z,90.70
2017-12-17T10:27:53.748Z,91.20
2017-12-17T10:29:30.262Z,90.70
2017-12-17T10:31:06.427Z,91.60
2017-12-17T10:32:43.107Z,91.80
2017-12-17T10:34:19.803Z,91.10
2017-12-17T10:35:56.019Z,90.40
2017-12-17T10:37:32.388Z,89.50
2017-12-17T10:39:08.612Z,90.30
2017-12-17T10:40:46.189Z,91.90
2017-12-17T10:42:22.463Z,91.70
2017-12-17T10:43:58.969Z,91.20
2017-12-17T10:45:35.910Z,91.70
2017-12-17T10:47:13.012Z,92.80
2017-12-17T10:48:50.302Z,93.10
2017-12-17T10:50:26.928Z,93.60
2017-12-17T10:52:03.835Z,93.10
2017-12-17T10:53:40.631Z,93.00
2017-12-17T10:55:17.770Z,93.10
2017-12-17T10:56:55.412Z,93.10
2017-12-17T10:58:31.714Z,94.10
2017-12-17T11:00:08.600Z,94.30
2017-12-17T11:01:51.103Z,94.00
2017-12-17T11:03:27.415Z,94.10
2017-12-17T11:05:04.426Z,94.70
2017-12-17T11:06:41.479Z,95.00
2017-12-17T11:08:23.392Z,95.20
2017-12-17T11:10:00.249Z,95.00
2017-12-17T11:11:36.824Z,95.00
2017-12-17T11:13:12.955Z,94.30
2017-12-17T11:14:49.334Z,94.00
2017-12-17T11:16:26.597Z,94.40
2017-12-17T11:18:04.291Z,95.10
2017-12-17T11:19:40.739Z,94.80
2017-12-17T11:21:16.920Z,95.10
2017-12-17T11:22:53.755Z,93.40
2017-12-17T11:24:30.569Z,93.20
2017-12-17T11:26:20.105Z,92.40
2017-12-17T11:27:56.511Z,91.60
2017-12-17T11:29:33.097Z,92.10
2017-12-17T11:31:12.159Z,92.10
2017-12-17T11:32:48.765Z,92.10
2017-12-17T11:34:25.305Z,91.20
2017-12-17T11:36:01.803Z,90.70
2017-12-17T11:37:38.792Z,91.40
2017-12-17T11:39:20.855Z,91.60
2017-12-17T11:40:57.201Z,91.00
2017-12-17T11:42:33.908Z,90.60
2017-12-17T11:44:10.568Z,91.30
2017-12-17T11:45:47.587Z,91.00
2017-12-17T11:47:24.205Z,91.10
2017-12-17T11:49:00.675Z,90.80
2017-12-17T11:50:37.897Z,90.50
2017-12-17T11:52:15.040Z,90.90
2017-12-17T11:53:51.454Z,90.80
2017-12-17T11:55:33.549Z,91.30
2017-12-17T11:57:10.406Z,91.60
2017-12-17T11:58:46.808Z,91.70
2017-12-17T12:00:28.727Z,91.70
2017-12-17T12:02:05.633Z,91.70
2017-12-17T12:03:42.421Z,92.10
2017-12-17T12:05:19.003Z,92.50
2017-12-17T12:06:55.457Z,92.60
2017-12-17T12:08:32.109Z,93.10
2017-12-17T12:10:09.136Z,94.00
2017-12-17T12:11:46.034Z,94.00
2017-12-17T12:13:22.724Z,94.00
2017-12-17T12:14:59.094Z,93.80
2017-12-17T12:16:35.975Z,94.20
2017-12-17T12:18:20.711Z,93.10
2017-12-17T12:19:57.196Z,93.10
2017-12-17T12:21:33.759Z,92.50
2017-12-17T12:23:11.257Z,92.60
2017-12-17T12:24:49.626Z,91.90
2017-12-17T12:26:28.288Z,92.30
2017-12-17T12:28:05.653Z,92.30
2017-12-17T12:29:42.553Z,92.60
2017-12-17T12:31:25.264Z,91.20
2017-12-17T12:33:02.159Z,91.00
2017-12-17T12:34:39.984Z,91.20
2017-12-17T12:36:17.289Z,91.20
2017-12-17T12:37:53.937Z,91.20
2017-12-17T12:39:31.137Z,90.60
2017-12-17T12:41:07.859Z,90.70
2017-12-17T12:42:47.446Z,90.90
2017-12-17T12:44:24.149Z,90.80
2017-12-17T12:46:00.435Z,91.20
2017-12-17T12:47:37.844Z,91.60
2017-12-17T12:49:15.051Z,92.10
2017-12-17T12:50:52.203Z,92.00
2017-12-17T12:52:29.680Z,91.60
2017-12-17T12:54:07.309Z,91.60
2017-12-17T12:55:47.233Z,91.50
2017-12-17T12:57:24.360Z,91.10
2017-12-17T12:59:01.974Z,92.60
2017-12-17T13:00:41.388Z,91.90
2017-12-17T13:02:19.854Z,91.50
2017-12-17T13:03:59.716Z,92.60
2017-12-17T13:05:36.942Z,91.80
2017-12-17T13:07:15.118Z,91.20
2017-12-17T13:08:53.465Z,91.20
2017-12-17T13:10:31.370Z,91.50
2017-12-17T13:12:08.568Z,91.80
2017-12-17T13:13:47.700Z,91.00
2017-12-17T13:15:27.972Z,91.00
2017-12-17T13:17:06.120Z,91.20
2017-12-17T13:18:42.685Z,90.80
2017-12-17T13:20:20.056Z,91.70
2017-12-17T13:22:00.322Z,92.90
2017-12-17T13:23:38.267Z,92.80
2017-12-17T13:25:19.053Z,92.80
2017-12-17T13:26:57.900Z,92.90
2017-12-17T13:28:35.884Z,93.20
2017-12-17T13:30:14.941Z,93.00
2017-12-17T13:31:55.142Z,93.30
2017-12-17T13:33:32.884Z,93.30
2017-12-17T13:35:11.091Z,93.20
2017-12-17T13:36:48.403Z,93.20
2017-12-17T13:38:25.784Z,92.60
2017-12-17T13:40:03.713Z,92.30
2017-12-17T13:41:46.730Z,92.40
2017-12-17T13:43:23.925Z,92.40
2017-12-17T13:45:01.083Z,92.50
2017-12-17T13:46:38.416Z,92.20
2017-12-17T13:48:16.570Z,92.40
2017-12-17T13:49:53.418Z,92.10
2017-12-17T13:51:32.159Z,93.20
2017-12-17T13:53:17.591Z,93.10
2017-12-17T13:54:56.418Z,92.90
2017-12-17T13:58:25.538Z,93.20
2017-12-17T14:00:04.649Z,93.10
2017-12-17T14:01:44.130Z,93.00
2017-12-17T14:03:25.230Z,92.70
2017-12-17T14:05:03.948Z,93.60
2017-12-17T14:06:44.269Z,93.20
2017-12-17T14:08:24.435Z,92.60
2017-12-17T14:10:03.807Z,92.40
2017-12-17T14:11:42.502Z,93.10
2017-12-17T14:13:21.087Z,93.60
2017-12-17T14:14:59.900Z,93.40
2017-12-17T14:16:39.932Z,92.90
2017-12-17T14:18:18.428Z,92.60
2017-12-17T14:19:57.063Z,91.60
2017-12-17T14:21:34.325Z,91.30
2017-12-17T14:23:11.316Z,91.60
2017-12-17T14:24:52.700Z,91.30
2017-12-17T14:26:34.443Z,91.30
2017-12-17T14:28:12.845Z,91.00
2017-12-17T14:29:50.292Z,91.10
2017-12-17T14:33:20.542Z,90.80
2017-12-17T14:34:59.210Z,90.70
2017-12-17T14:36:37.716Z,91.20
2017-12-17T14:38:18.523Z,91.20
2017-12-17T14:39:58.885Z,90.90
2017-12-17T14:41:41.854Z,91.60
2017-12-17T14:43:22.337Z,91.70
2017-12-17T14:45:02.196Z,90.80
2017-12-17T14:46:41.706Z,90.20
2017-12-17T14:50:15.080Z,87.80
2017-12-17T14:51:52.770Z,90.00
2017-12-17T14:53:32.310Z,89.00
2017-12-17T14:55:12.262Z,89.50
2017-12-17T14:56:52.375Z,90.10
2017-12-17T14:58:31.486Z,91.30
2017-12-17T15:00:12.485Z,90.70
2017-12-17T15:01:52.223Z,90.70
2017-12-17T15:03:32.284Z,89.90
2017-12-17T15:05:19.835Z,87.90
2017-12-17T15:06:59.882Z,87.70
2017-12-17T15:08:38.254Z,87.70
2017-12-17T15:10:19.312Z,90.10
2017-12-17T15:12:00.860Z,89.60
2017-12-17T15:13:40.380Z,89.90
2017-12-17T15:15:20.902Z,91.00
2017-12-17T15:16:59.486Z,89.70
2017-12-17T15:18:40.149Z,88.90
2017-12-17T15:20:20.624Z,88.90
2017-12-17T15:22:00.012Z,89.90
2017-12-17T15:23:38.694Z,90.10
2017-12-17T15:25:19.144Z,90.30
2017-12-17T15:26:57.152Z,89.90
2017-12-17T15:28:39.086Z,90.10
2017-12-17T15:30:21.237Z,91.60
2017-12-17T15:32:15.716Z,91.40
2017-12-17T15:33:56.974Z,91.40
2017-12-17T15:35:37.336Z,90.30
2017-12-17T15:37:16.419Z,90.30
2017-12-17T15:38:55.656Z,89.30
2017-12-17T15:40:35.135Z,90.60
2017-12-17T15:42:13.009Z,90.60
2017-12-17T15:43:51.027Z,89.90
2017-12-17T15:45:32.031Z,90.00
2017-12-17T15:47:10.456Z,90.00
2017-12-17T15:48:49.522Z,90.20
2017-12-17T15:50:28.446Z,89.80
2017-12-17T15:52:07.563Z,90.20
2017-12-17T15:55:17.182Z,88.70
2017-12-17T15:56:56.220Z,86.50
2017-12-17T15:58:37.005Z,86.90
2017-12-17T16:00:22.040Z,86.80
2017-12-17T16:02:01.492Z,85.90
2017-12-17T16:03:40.044Z,84.80
2017-12-17T16:05:22.258Z,85.50
2017-12-17T16:07:03.559Z,85.50
2017-12-17T16:08:43.070Z,85.50
2017-12-17T16:10:23.411Z,87.50
2017-12-17T16:12:03.631Z,86.50
2017-12-17T16:15:33.713Z,87.90
2017-12-17T16:17:13.721Z,86.10
2017-12-17T16:18:54.310Z,86.40
2017-12-17T16:20:32.839Z,85.60
2017-12-17T16:22:11.666Z,84.20
2017-12-17T16:23:50.821Z,83.40
2017-12-17T16:25:35.153Z,84.10
2017-12-17T16:27:13.905Z,84.60
2017-12-17T16:28:53.246Z,84.70
2017-12-17T16:30:34.369Z,85.00
2017-12-17T16:32:14.455Z,85.60
2017-12-17T16:33:55.766Z,85.30
2017-12-17T16:35:33.953Z,83.70
2017-12-17T16:37:13.458Z,84.70
2017-12-17T16:38:52.126Z,84.70
2017-12-17T16:40:33.988Z,83.20
2017-12-17T16:42:13.107Z,83.30
2017-12-17T16:43:53.116Z,83.30
2017-12-17T16:45:31.698Z,83.30
2017-12-17T16:47:13.110Z,84.30
2017-12-17T16:48:51.589Z,84.30
2017-12-17T16:50:30.127Z,84.20
2017-12-17T16:52:21.559Z,86.50
2017-12-17T16:54:00.615Z,84.70
2017-12-17T16:55:41.570Z,84.60
2017-12-17T16:57:21.933Z,84.80
2017-12-17T16:59:02.998Z,84.70
2017-12-17T17:00:44.574Z,84.70
2017-12-17T17:02:23.894Z,86.20
2017-12-17T17:04:05.048Z,86.60
2017-12-17T17:05:46.418Z,85.80
2017-12-17T17:07:30.490Z,84.30
2017-12-17T17:09:10.430Z,83.90
2017-12-17T17:10:49.217Z,84.60
2017-12-17T17:12:27.571Z,84.60
2017-12-17T17:14:08.614Z,84.40
2017-12-17T17:15:48.787Z,84.40
2017-12-17T17:17:28.077Z,84.30
2017-12-17T17:19:08.301Z,86.70
2017-12-17T17:20:47.352Z,86.10
2017-12-17T17:22:30.595Z,88.30
2017-12-17T17:24:13.453Z,87.60
2017-12-17T17:25:52.352Z,85.60
2017-12-17T17:27:31.410Z,85.60
2017-12-17T17:29:09.676Z,85.60
2017-12-17T17:30:49.715Z,87.10
2017-12-17T17:32:29.076Z,86.30
2017-12-17T17:34:10.095Z,85.50
2017-12-17T17:35:50.285Z,85.40
2017-12-17T17:37:28.262Z,86.00
2017-12-17T17:39:18.713Z,84.80
2017-12-17T17:41:02.123Z,84.70
2017-12-17T17:42:47.590Z,84.60
2017-12-17T17:44:28.278Z,84.10
2017-12-17T17:46:08.591Z,85.20
2017-12-17T17:47:47.637Z,85.20
2017-12-17T17:49:29.103Z,84.90
2017-12-17T17:51:18.338Z,84.00
2017-12-17T17:53:01.377Z,84.60
2017-12-17T17:54:39.879Z,85.60
2017-12-17T17:56:20.512Z,85.50
2017-12-17T17:58:01.737Z,87.90
2017-12-17T17:59:45.179Z,89.00
2017-12-17T18:01:33.957Z,87.00
2017-12-17T18:03:18.518Z,85.90
2017-12-17T18:05:03.317Z,86.50
2017-12-17T18:06:47.169Z,89.50
2017-12-17T18:08:33.427Z,87.90
2017-12-17T18:10:15.301Z,87.30
2017-12-17T18:11:56.538Z,87.00
2017-12-17T18:13:40.322Z,87.00
2017-12-17T18:15:33.934Z,86.50
2017-12-17T18:19:31.660Z,85.60
2017-12-17T18:21:18.236Z,84.70
2017-12-17T18:23:02.064Z,86.10
2017-12-17T18:24:45.487Z,85.20
2017-12-17T18:26:28.201Z,85.00
2017-12-17T18:28:09.961Z,85.90
2017-12-17T18:29:52.509Z,85.80
2017-12-17T18:31:38.662Z,86.40
2017-12-17T18:33:23.120Z,86.70
2017-12-17T18:35:20.909Z,86.00
2017-12-17T18:37:08.216Z,84.30
2017-12-17T18:38:52.040Z,84.30
2017-12-17T18:40:45.864Z,85.40
2017-12-17T18:42:36.799Z,85.40
2017-12-17T18:44:21.653Z,84.20
2017-12-17T18:46:08.855Z,84.10
2017-12-17T18:47:58.838Z,84.10
2017-12-17T18:51:35.774Z,84.50
2017-12-17T18:53:18.370Z,84.50
2017-12-17T18:55:03.294Z,87.00
2017-12-17T18:56:52.872Z,85.90
2017-12-17T18:58:39.748Z,84.70
2017-12-17T19:00:33.486Z,87.90
2017-12-17T19:02:16.566Z,87.90
2017-12-17T19:03:56.290Z,86.60
2017-12-17T19:05:39.602Z,85.70
2017-12-17T19:07:21.747Z,84.70
2017-12-17T19:09:12.253Z,83.70
2017-12-17T19:10:57.819Z,83.60
2017-12-17T19:12:41.299Z,84.70
2017-12-17T19:14:26.988Z,84.90
2017-12-17T19:16:17.032Z,83.60
2017-12-17T19:17:58.755Z,82.80
2017-12-17T19:19:45.245Z,83.00
2017-12-17T19:21:30.615Z,83.70
2017-12-17T19:23:13.175Z,83.50
2017-12-17T19:24:55.075Z,83.70
2017-12-17T19:26:47.857Z,84.00
2017-12-17T19:28:28.448Z,83.60
2017-12-17T19:32:00.163Z,84.30
2017-12-17T19:33:42.671Z,84.80
2017-12-17T19:35:24.143Z,84.80
2017-12-17T19:37:08.090Z,85.50
2017-12-17T19:38:48.803Z,85.50
2017-12-17T19:40:33.349Z,85.70
2017-12-17T19:42:16.397Z,87.70
2017-12-17T19:43:58.571Z,88.20
2017-12-17T19:45:51.437Z,87.40
2017-12-17T19:47:33.250Z,84.70
2017-12-17T19:49:20.943Z,84.70
2017-12-17T19:51:06.905Z,84.50
2017-12-17T19:52:51.897Z,85.50
2017-12-17T19:54:39.420Z,85.60
2017-12-17T19:56:21.433Z,86.70
2017-12-17T19:58:03.868Z,86.60
2017-12-17T19:59:45.539Z,87.80
2017-12-17T20:01:29.200Z,87.40
2017-12-17T20:03:09.280Z,87.60
2017-12-17T20:04:55.890Z,86.40
2017-12-17T20:06:41.836Z,88.60
2017-12-17T20:08:23.854Z,88.60
2017-12-17T20:10:06.797Z,89.10
2017-12-17T20:11:48.916Z,87.20
2017-12-17T20:13:29.473Z,86.80
2017-12-17T20:15:16.171Z,85.40
2017-12-17T20:17:05.008Z,84.50
2017-12-17T20:18:55.534Z,84.30
2017-12-17T20:20:43.195Z,85.40
2017-12-17T20:22:32.300Z,87.00
2017-12-17T20:26:05.046Z,86.30
2017-12-17T20:27:44.139Z,85.70
2017-12-17T20:29:27.395Z,86.40
2017-12-17T20:31:17.686Z,85.20
2017-12-17T20:33:02.166Z,85.60
2017-12-17T20:34:44.031Z,85.60
2017-12-17T20:36:25.987Z,86.80
2017-12-17T20:38:07.979Z,86.80
2017-12-17T20:39:52.872Z,87.70
2017-12-17T20:41:42.121Z,86.90
2017-12-17T20:43:25.796Z,86.00
2017-12-17T20:45:09.221Z,85.40
2017-12-17T20:46:54.814Z,84.40
2017-12-17T20:48:39.526Z,84.30
2017-12-17T20:50:30.224Z,85.20
2017-12-17T20:52:18.194Z,85.20
2017-12-17T20:54:01.568Z,85.40
2017-12-17T20:55:47.083Z,84.30
2017-12-17T20:57:33.663Z,83.00
2017-12-17T20:59:16.597Z,82.20
2017-12-17T21:00:59.134Z,81.40
2017-12-17T21:02:45.085Z,84.30
2017-12-17T21:04:25.350Z,83.10
2017-12-17T21:06:08.598Z,82.00
2017-12-17T21:07:55.488Z,81.70
2017-12-17T21:09:37.181Z,82.40
2017-12-17T21:11:17.483Z,82.30
2017-12-17T21:13:01.160Z,82.80
2017-12-17T21:14:41.477Z,83.30
2017-12-17T21:16:22.825Z,82.50
2017-12-17T21:18:04.298Z,82.00
2017-12-17T21:19:44.823Z,81.70
2017-12-17T21:21:27.165Z,82.30
2017-12-17T21:23:07.134Z,82.80
2017-12-17T21:24:47.521Z,82.70
2017-12-17T21:26:28.543Z,82.80
2017-12-17T21:28:08.254Z,83.70
2017-12-17T21:29:46.273Z,83.70
2017-12-17T21:31:25.490Z,82.90
2017-12-17T21:33:03.198Z,82.20
2017-12-17T21:34:43.618Z,83.00
2017-12-17T21:36:23.616Z,83.40
2017-12-17T21:38:04.259Z,84.00